sensor_id;sensor_type;location;lat;lon;timestamp;pressure;altitude;pressure_sealevel;temperature;humidity
31483;BME280;18103;52.246;8.052;2023-04-08T00:00:20;101007.09;;;6.21;65.24
31483;BME280;18103;52.246;8.052;2023-04-08T00:02:45;101014.97;;;6.21;65.62
31483;BME280;18103;52.246;8.052;2023-04-08T00:05:13;101020.22;;;6.21;65.62
31483;BME280;18103;52.246;8.052;2023-04-08T00:07:39;101014.56;;;6.11;66.20
31483;BME280;18103;52.246;8.052;2023-04-08T00:10:04;101024.97;;;5.94;66.30
31483;BME280;18103;52.246;8.052;2023-04-08T00:12:31;101019.81;;;5.92;66.92
31483;BME280;18103;52.246;8.052;2023-04-08T00:14:57;101016.13;;;5.96;66.18
31483;BME280;18103;52.246;8.052;2023-04-08T00:17:22;101025.66;;;5.99;66.79
31483;BME280;18103;52.246;8.052;2023-04-08T00:19:53;101011.72;;;5.97;66.48
31483;BME280;18103;52.246;8.052;2023-04-08T00:22:19;101016.13;;;5.96;66.15
31483;BME280;18103;52.246;8.052;2023-04-08T00:24:47;101011.69;;;5.98;65.66
31483;BME280;18103;52.246;8.052;2023-04-08T00:27:15;101013.75;;;5.92;65.92
31483;BME280;18103;52.246;8.052;2023-04-08T00:29:43;101016.56;;;5.87;66.75
31483;BME280;18103;52.246;8.052;2023-04-08T00:32:10;101014.41;;;5.78;66.68
31483;BME280;18103;52.246;8.052;2023-04-08T00:34:36;101018.09;;;5.74;67.35
31483;BME280;18103;52.246;8.052;2023-04-08T00:37:02;101018.16;;;5.72;66.85
31483;BME280;18103;52.246;8.052;2023-04-08T00:39:28;101016.38;;;5.73;66.92
31483;BME280;18103;52.246;8.052;2023-04-08T00:41:53;101005.81;;;5.74;67.21
31483;BME280;18103;52.246;8.052;2023-04-08T00:44:18;101010.56;;;5.66;67.31
31483;BME280;18103;52.246;8.052;2023-04-08T00:46:44;101018.66;;;5.61;67.49
31483;BME280;18103;52.246;8.052;2023-04-08T00:49:10;101011.78;;;5.59;67.66
31483;BME280;18103;52.246;8.052;2023-04-08T00:51:36;101011.72;;;5.60;67.80
31483;BME280;18103;52.246;8.052;2023-04-08T00:54:02;101016.19;;;5.58;67.63
31483;BME280;18103;52.246;8.052;2023-04-08T00:56:31;101017.44;;;5.49;67.86
31483;BME280;18103;52.246;8.052;2023-04-08T00:58:59;101012.94;;;5.53;68.03
31483;BME280;18103;52.246;8.052;2023-04-08T01:04:16;101019.66;;;5.59;68.60
31483;BME280;18103;52.246;8.052;2023-04-08T01:07:19;101032.47;;;5.46;69.46
31483;BME280;18103;52.246;8.052;2023-04-08T01:09:53;101029.84;;;5.46;69.44
31483;BME280;18103;52.246;8.052;2023-04-08T01:12:31;101023.13;;;5.40;69.83
31483;BME280;18103;52.246;8.052;2023-04-08T01:15:04;101021.56;;;5.36;70.36
31483;BME280;18103;52.246;8.052;2023-04-08T01:17:31;101028.28;;;5.42;70.49
31483;BME280;18103;52.246;8.052;2023-04-08T01:19:59;101025.03;;;5.37;70.97
31483;BME280;18103;52.246;8.052;2023-04-08T01:25:25;101024.81;;;5.41;70.75
31483;BME280;18103;52.246;8.052;2023-04-08T01:27:51;101028.63;;;5.34;71.79
31483;BME280;18103;52.246;8.052;2023-04-08T01:30:22;101021.50;;;5.38;71.32
31483;BME280;18103;52.246;8.052;2023-04-08T01:32:51;101026.59;;;5.41;71.11
31483;BME280;18103;52.246;8.052;2023-04-08T01:35:17;101037.56;;;5.49;71.04
31483;BME280;18103;52.246;8.052;2023-04-08T01:37:48;101032.19;;;5.33;71.31
31483;BME280;18103;52.246;8.052;2023-04-08T01:40:18;101035.84;;;5.48;70.47
31483;BME280;18103;52.246;8.052;2023-04-08T01:42:46;101033.66;;;5.39;70.82
31483;BME280;18103;52.246;8.052;2023-04-08T01:45:17;101045.19;;;5.54;70.47
31483;BME280;18103;52.246;8.052;2023-04-08T01:47:46;101039.88;;;5.55;70.61
31483;BME280;18103;52.246;8.052;2023-04-08T01:50:13;101042.50;;;5.55;70.98
31483;BME280;18103;52.246;8.052;2023-04-08T01:52:48;101042.41;;;5.57;71.50
31483;BME280;18103;52.246;8.052;2023-04-08T01:55:18;101038.88;;;5.58;71.29
31483;BME280;18103;52.246;8.052;2023-04-08T01:57:47;101037.56;;;5.68;70.74
31483;BME280;18103;52.246;8.052;2023-04-08T02:00:15;101041.34;;;5.80;70.96
31483;BME280;18103;52.246;8.052;2023-04-08T02:02:45;101037.66;;;5.84;70.99
31483;BME280;18103;52.246;8.052;2023-04-08T02:05:11;101044.47;;;5.88;70.50
31483;BME280;18103;52.246;8.052;2023-04-08T02:07:37;101036.84;;;5.83;70.95
31483;BME280;18103;52.246;8.052;2023-04-08T02:10:03;101033.72;;;5.75;70.80
31483;BME280;18103;52.246;8.052;2023-04-08T02:12:28;101035.63;;;5.91;71.16
31483;BME280;18103;52.246;8.052;2023-04-08T02:14:54;101046.69;;;5.97;70.83
31483;BME280;18103;52.246;8.052;2023-04-08T02:20:36;101045.41;;;6.06;70.21
31483;BME280;18103;52.246;8.052;2023-04-08T02:23:09;101042.78;;;6.06;70.90
31483;BME280;18103;52.246;8.052;2023-04-08T02:25:41;101049.63;;;6.09;70.68
31483;BME280;18103;52.246;8.052;2023-04-08T02:28:09;101047.09;;;6.07;71.17
31483;BME280;18103;52.246;8.052;2023-04-08T02:30:48;101050.13;;;6.17;70.70
31483;BME280;18103;52.246;8.052;2023-04-08T02:33:18;101052.38;;;6.06;71.06
31483;BME280;18103;52.246;8.052;2023-04-08T02:35:46;101051.03;;;6.16;71.07
31483;BME280;18103;52.246;8.052;2023-04-08T02:38:12;101050.56;;;6.08;71.27
31483;BME280;18103;52.246;8.052;2023-04-08T02:40:38;101045.16;;;6.11;71.23
31483;BME280;18103;52.246;8.052;2023-04-08T02:43:03;101054.91;;;6.26;70.99
31483;BME280;18103;52.246;8.052;2023-04-08T02:45:31;101057.75;;;6.22;71.02
31483;BME280;18103;52.246;8.052;2023-04-08T02:47:59;101057.66;;;6.23;71.16
31483;BME280;18103;52.246;8.052;2023-04-08T02:50:27;101054.50;;;6.16;71.68
31483;BME280;18103;52.246;8.052;2023-04-08T02:52:55;101056.13;;;6.19;72.10
31483;BME280;18103;52.246;8.052;2023-04-08T02:55:22;101058.25;;;6.11;72.37
31483;BME280;18103;52.246;8.052;2023-04-08T02:57:51;101060.78;;;6.31;71.22
31483;BME280;18103;52.246;8.052;2023-04-08T03:00:17;101055.59;;;6.30;71.85
31483;BME280;18103;52.246;8.052;2023-04-08T03:02:42;101062.59;;;6.29;72.64
31483;BME280;18103;52.246;8.052;2023-04-08T03:05:08;101061.53;;;6.33;71.99
31483;BME280;18103;52.246;8.052;2023-04-08T03:07:34;101065.69;;;6.38;71.74
31483;BME280;18103;52.246;8.052;2023-04-08T03:10:02;101056.22;;;6.35;71.96
31483;BME280;18103;52.246;8.052;2023-04-08T03:12:28;101065.09;;;6.32;72.05
31483;BME280;18103;52.246;8.052;2023-04-08T03:14:57;101063.16;;;6.36;73.10
31483;BME280;18103;52.246;8.052;2023-04-08T03:17:22;101060.94;;;6.28;73.42
31483;BME280;18103;52.246;8.052;2023-04-08T03:19:47;101065.38;;;6.26;73.55
31483;BME280;18103;52.246;8.052;2023-04-08T03:22:18;101068.47;;;6.34;72.94
31483;BME280;18103;52.246;8.052;2023-04-08T03:24:45;101061.72;;;6.48;72.26
31483;BME280;18103;52.246;8.052;2023-04-08T03:27:11;101064.63;;;6.42;73.63
31483;BME280;18103;52.246;8.052;2023-04-08T03:29:37;101071.41;;;6.46;73.81
31483;BME280;18103;52.246;8.052;2023-04-08T03:32:04;101072.97;;;6.50;73.21
31483;BME280;18103;52.246;8.052;2023-04-08T03:34:30;101067.63;;;6.51;73.29
31483;BME280;18103;52.246;8.052;2023-04-08T03:37:00;101068.94;;;6.43;74.02
31483;BME280;18103;52.246;8.052;2023-04-08T03:39:30;101058.16;;;6.49;73.45
31483;BME280;18103;52.246;8.052;2023-04-08T03:41:58;101060.47;;;6.55;73.42
31483;BME280;18103;52.246;8.052;2023-04-08T03:44:25;101069.34;;;6.53;73.62
31483;BME280;18103;52.246;8.052;2023-04-08T03:46:50;101064.63;;;6.42;73.72
31483;BME280;18103;52.246;8.052;2023-04-08T03:49:16;101063.38;;;6.49;73.99
31483;BME280;18103;52.246;8.052;2023-04-08T03:51:44;101068.19;;;6.58;73.85
31483;BME280;18103;52.246;8.052;2023-04-08T03:54:09;101057.53;;;6.44;74.60
31483;BME280;18103;52.246;8.052;2023-04-08T03:56:35;101069.50;;;6.49;74.28
31483;BME280;18103;52.246;8.052;2023-04-08T03:59:02;101055.44;;;6.50;75.25
31483;BME280;18103;52.246;8.052;2023-04-08T04:01:28;101058.69;;;6.56;74.45
31483;BME280;18103;52.246;8.052;2023-04-08T04:03:57;101052.78;;;6.52;74.61
31483;BME280;18103;52.246;8.052;2023-04-08T04:06:24;101056.78;;;6.59;74.28
31483;BME280;18103;52.246;8.052;2023-04-08T04:08:52;101064.19;;;6.51;74.95
31483;BME280;18103;52.246;8.052;2023-04-08T04:11:22;101064.94;;;6.53;75.11
31483;BME280;18103;52.246;8.052;2023-04-08T04:13:50;101067.03;;;6.64;74.62
31483;BME280;18103;52.246;8.052;2023-04-08T04:16:16;101063.63;;;6.44;75.32
31483;BME280;18103;52.246;8.052;2023-04-08T04:18:41;101070.34;;;6.50;75.40
31483;BME280;18103;52.246;8.052;2023-04-08T04:21:09;101081.38;;;6.57;74.84
31483;BME280;18103;52.246;8.052;2023-04-08T04:23:34;101077.44;;;6.65;74.12
31483;BME280;18103;52.246;8.052;2023-04-08T04:26:00;101082.69;;;6.65;74.69
31483;BME280;18103;52.246;8.052;2023-04-08T04:28:25;101084.09;;;6.55;75.16
31483;BME280;18103;52.246;8.052;2023-04-08T04:30:51;101077.13;;;6.54;75.35
31483;BME280;18103;52.246;8.052;2023-04-08T04:33:18;101097.75;;;6.62;74.23
31483;BME280;18103;52.246;8.052;2023-04-08T04:35:44;101095.19;;;6.60;74.51
31483;BME280;18103;52.246;8.052;2023-04-08T04:38:09;101092.63;;;6.59;74.81
31483;BME280;18103;52.246;8.052;2023-04-08T04:40:37;101086.47;;;6.60;74.69
31483;BME280;18103;52.246;8.052;2023-04-08T04:43:03;101089.94;;;6.60;74.75
31483;BME280;18103;52.246;8.052;2023-04-08T04:45:28;101088.25;;;6.59;74.71
31483;BME280;18103;52.246;8.052;2023-04-08T04:47:56;101099.13;;;6.69;74.19
31483;BME280;18103;52.246;8.052;2023-04-08T04:50:24;101098.03;;;6.56;75.39
31483;BME280;18103;52.246;8.052;2023-04-08T04:52:52;101094.41;;;6.58;74.64
31483;BME280;18103;52.246;8.052;2023-04-08T04:55:20;101086.31;;;6.63;75.14
31483;BME280;18103;52.246;8.052;2023-04-08T04:57:48;101095.06;;;6.63;75.21
31483;BME280;18103;52.246;8.052;2023-04-08T05:00:14;101099.34;;;6.64;75.48
31483;BME280;18103;52.246;8.052;2023-04-08T05:02:42;101107.22;;;6.64;75.47
31483;BME280;18103;52.246;8.052;2023-04-08T05:05:09;101104.19;;;6.55;76.07
31483;BME280;18103;52.246;8.052;2023-04-08T05:07:36;101112.47;;;6.64;75.30
31483;BME280;18103;52.246;8.052;2023-04-08T05:10:04;101110.63;;;6.66;75.42
31483;BME280;18103;52.246;8.052;2023-04-08T05:12:32;101110.94;;;6.78;75.14
31483;BME280;18103;52.246;8.052;2023-04-08T05:15:02;101106.63;;;6.59;76.54
31483;BME280;18103;52.246;8.052;2023-04-08T05:17:30;101111.38;;;6.68;75.21
31483;BME280;18103;52.246;8.052;2023-04-08T05:19:55;101108.75;;;6.68;75.92
31483;BME280;18103;52.246;8.052;2023-04-08T05:22:21;101109.41;;;6.56;76.14
31483;BME280;18103;52.246;8.052;2023-04-08T05:24:46;101107.44;;;6.60;75.87
31483;BME280;18103;52.246;8.052;2023-04-08T05:27:12;101118.34;;;6.70;76.07
31483;BME280;18103;52.246;8.052;2023-04-08T05:29:37;101115.09;;;6.64;76.45
31483;BME280;18103;52.246;8.052;2023-04-08T05:32:02;101122.91;;;6.66;76.34
31483;BME280;18103;52.246;8.052;2023-04-08T05:34:30;101130.69;;;6.67;76.49
31483;BME280;18103;52.246;8.052;2023-04-08T05:36:55;101130.63;;;6.69;75.82
31483;BME280;18103;52.246;8.052;2023-04-08T05:39:21;101136.88;;;6.66;75.88
31483;BME280;18103;52.246;8.052;2023-04-08T05:41:49;101129.75;;;6.68;76.27
31483;BME280;18103;52.246;8.052;2023-04-08T05:44:15;101126.38;;;6.66;76.53
31483;BME280;18103;52.246;8.052;2023-04-08T05:46:40;101129.06;;;6.65;76.18
31483;BME280;18103;52.246;8.052;2023-04-08T05:49:05;101132.28;;;6.70;76.48
31483;BME280;18103;52.246;8.052;2023-04-08T05:51:31;101132.28;;;6.70;76.40
31483;BME280;18103;52.246;8.052;2023-04-08T05:53:59;101148.00;;;6.72;76.47
31483;BME280;18103;52.246;8.052;2023-04-08T05:56:26;101143.41;;;6.75;76.44
31483;BME280;18103;52.246;8.052;2023-04-08T05:58:52;101145.81;;;6.80;76.41
31483;BME280;18103;52.246;8.052;2023-04-08T06:01:17;101146.97;;;6.92;75.73
31483;BME280;18103;52.246;8.052;2023-04-08T06:03:42;101151.75;;;6.83;75.92
31483;BME280;18103;52.246;8.052;2023-04-08T06:06:09;101159.41;;;6.71;76.86
31483;BME280;18103;52.246;8.052;2023-04-08T06:08:36;101146.13;;;6.74;76.63
31483;BME280;18103;52.246;8.052;2023-04-08T06:11:01;101157.09;;;6.82;75.95
31483;BME280;18103;52.246;8.052;2023-04-08T06:13:30;101164.44;;;6.93;75.96
31483;BME280;18103;52.246;8.052;2023-04-08T06:15:55;101156.31;;;6.80;76.63
31483;BME280;18103;52.246;8.052;2023-04-08T06:18:21;101160.06;;;6.74;76.48
31483;BME280;18103;52.246;8.052;2023-04-08T06:20:46;101171.22;;;6.79;75.96
31483;BME280;18103;52.246;8.052;2023-04-08T06:23:14;101169.25;;;6.65;76.53
31483;BME280;18103;52.246;8.052;2023-04-08T06:25:44;101165.00;;;6.63;76.79
31483;BME280;18103;52.246;8.052;2023-04-08T06:28:10;101175.91;;;6.73;76.30
31483;BME280;18103;52.246;8.052;2023-04-08T06:30:38;101176.06;;;6.70;76.67
31483;BME280;18103;52.246;8.052;2023-04-08T06:33:06;101182.09;;;6.72;76.97
31483;BME280;18103;52.246;8.052;2023-04-08T06:35:31;101187.44;;;6.88;76.02
31483;BME280;18103;52.246;8.052;2023-04-08T06:37:57;101179.41;;;6.91;76.20
31483;BME280;18103;52.246;8.052;2023-04-08T06:40:24;101189.88;;;6.91;76.53
31483;BME280;18103;52.246;8.052;2023-04-08T06:42:50;101196.69;;;6.77;76.88
31483;BME280;18103;52.246;8.052;2023-04-08T06:45:15;101197.75;;;6.73;76.47
31483;BME280;18103;52.246;8.052;2023-04-08T06:47:43;101190.66;;;6.75;76.89
31483;BME280;18103;52.246;8.052;2023-04-08T06:50:11;101203.88;;;6.91;75.85
31483;BME280;18103;52.246;8.052;2023-04-08T06:52:36;101195.91;;;6.75;76.52
31483;BME280;18103;52.246;8.052;2023-04-08T06:55:02;101207.63;;;6.68;77.03
31483;BME280;18103;52.246;8.052;2023-04-08T06:57:29;101201.38;;;6.71;76.84
31483;BME280;18103;52.246;8.052;2023-04-08T07:00:00;101208.25;;;6.73;76.96
31483;BME280;18103;52.246;8.052;2023-04-08T07:02:28;101214.16;;;6.96;76.35
31483;BME280;18103;52.246;8.052;2023-04-08T07:04:53;101216.84;;;6.94;76.53
31483;BME280;18103;52.246;8.052;2023-04-08T07:07:19;101221.31;;;6.92;77.40
31483;BME280;18103;52.246;8.052;2023-04-08T07:09:48;101220.88;;;7.01;76.65
31483;BME280;18103;52.246;8.052;2023-04-08T07:12:14;101221.56;;;7.05;76.76
31483;BME280;18103;52.246;8.052;2023-04-08T07:14:42;101220.78;;;7.03;76.66
31483;BME280;18103;52.246;8.052;2023-04-08T07:17:07;101220.84;;;7.19;75.76
31483;BME280;18103;52.246;8.052;2023-04-08T07:19:35;101229.22;;;7.10;76.85
31483;BME280;18103;52.246;8.052;2023-04-08T07:22:03;101231.75;;;7.11;76.92
31483;BME280;18103;52.246;8.052;2023-04-08T07:24:28;101229.19;;;7.27;76.23
31483;BME280;18103;52.246;8.052;2023-04-08T07:26:53;101232.13;;;7.39;75.50
31483;BME280;18103;52.246;8.052;2023-04-08T07:29:21;101234.00;;;7.19;76.88
31483;BME280;18103;52.246;8.052;2023-04-08T07:31:48;101240.09;;;7.37;76.07
31483;BME280;18103;52.246;8.052;2023-04-08T07:34:13;101234.00;;;7.36;76.36
31483;BME280;18103;52.246;8.052;2023-04-08T07:36:41;101233.38;;;7.31;76.74
31483;BME280;18103;52.246;8.052;2023-04-08T07:39:06;101230.53;;;7.36;76.45
31483;BME280;18103;52.246;8.052;2023-04-08T07:41:35;101232.06;;;7.58;75.67
31483;BME280;18103;52.246;8.052;2023-04-08T07:44:00;101237.38;;;7.56;76.30
31483;BME280;18103;52.246;8.052;2023-04-08T07:46:26;101240.88;;;7.39;76.85
31483;BME280;18103;52.246;8.052;2023-04-08T07:48:53;101239.22;;;7.54;76.76
31483;BME280;18103;52.246;8.052;2023-04-08T07:51:19;101237.94;;;7.63;75.71
31483;BME280;18103;52.246;8.052;2023-04-08T07:53:44;101241.84;;;7.54;76.28
31483;BME280;18103;52.246;8.052;2023-04-08T07:56:13;101247.19;;;7.70;75.94
31483;BME280;18103;52.246;8.052;2023-04-08T07:58:39;101248.28;;;7.66;75.64
31483;BME280;18103;52.246;8.052;2023-04-08T08:01:14;101241.09;;;7.52;76.45
31483;BME280;18103;52.246;8.052;2023-04-08T08:03:40;101254.22;;;7.69;75.33
31483;BME280;18103;52.246;8.052;2023-04-08T08:06:05;101249.66;;;7.73;75.79
31483;BME280;18103;52.246;8.052;2023-04-08T08:08:30;101253.06;;;7.75;75.76
31483;BME280;18103;52.246;8.052;2023-04-08T08:10:57;101256.91;;;7.85;75.64
31483;BME280;18103;52.246;8.052;2023-04-08T08:13:22;101253.06;;;7.75;75.66
31483;BME280;18103;52.246;8.052;2023-04-08T08:15:51;101261.09;;;7.72;76.01
31483;BME280;18103;52.246;8.052;2023-04-08T08:18:17;101257.78;;;7.68;76.69
31483;BME280;18103;52.246;8.052;2023-04-08T08:20:46;101272.91;;;7.81;75.51
31483;BME280;18103;52.246;8.052;2023-04-08T08:23:11;101266.13;;;7.77;76.24
31483;BME280;18103;52.246;8.052;2023-04-08T08:25:36;101261.09;;;7.72;76.60
31483;BME280;18103;52.246;8.052;2023-04-08T08:28:02;101266.72;;;7.82;76.46
31483;BME280;18103;52.246;8.052;2023-04-08T08:30:27;101273.13;;;7.94;75.87
31483;BME280;18103;52.246;8.052;2023-04-08T08:32:54;101271.47;;;7.75;76.67
31483;BME280;18103;52.246;8.052;2023-04-08T08:35:23;101268.84;;;7.75;76.76
31483;BME280;18103;52.246;8.052;2023-04-08T08:37:48;101275.50;;;7.98;76.30
31483;BME280;18103;52.246;8.052;2023-04-08T08:40:14;101282.38;;;8.01;76.13
31483;BME280;18103;52.246;8.052;2023-04-08T08:42:49;101278.03;;;8.00;76.15
31483;BME280;18103;52.246;8.052;2023-04-08T08:45:20;101286.94;;;7.97;75.91
31483;BME280;18103;52.246;8.052;2023-04-08T08:47:46;101280.38;;;8.06;75.98
31483;BME280;18103;52.246;8.052;2023-04-08T08:50:11;101286.56;;;8.05;76.16
31483;BME280;18103;52.246;8.052;2023-04-08T08:52:36;101284.94;;;8.02;76.08
31483;BME280;18103;52.246;8.052;2023-04-08T08:55:05;101287.44;;;8.21;75.84
31483;BME280;18103;52.246;8.052;2023-04-08T08:57:30;101289.41;;;8.34;75.56
31483;BME280;18103;52.246;8.052;2023-04-08T08:59:56;101286.47;;;8.07;76.14
31483;BME280;18103;52.246;8.052;2023-04-08T09:02:30;101296.66;;;8.13;76.41
31483;BME280;18103;52.246;8.052;2023-04-08T09:05:02;101291.53;;;8.27;75.62
31483;BME280;18103;52.246;8.052;2023-04-08T09:07:34;101296.22;;;8.38;75.81
31483;BME280;18103;52.246;8.052;2023-04-08T09:09:59;101300.28;;;8.44;76.44
31483;BME280;18103;52.246;8.052;2023-04-08T09:12:26;101299.72;;;8.54;75.71
31483;BME280;18103;52.246;8.052;2023-04-08T09:15:05;101298.97;;;8.52;75.41
31483;BME280;18103;52.246;8.052;2023-04-08T09:17:36;101304.94;;;8.38;76.22
31483;BME280;18103;52.246;8.052;2023-04-08T09:20:10;101298.72;;;8.57;75.26
31483;BME280;18103;52.246;8.052;2023-04-08T09:22:56;101297.00;;;8.56;75.60
31483;BME280;18103;52.246;8.052;2023-04-08T09:25:28;101303.97;;;8.57;75.71
31483;BME280;18103;52.246;8.052;2023-04-08T09:27:54;101288.53;;;8.67;76.03
31483;BME280;18103;52.246;8.052;2023-04-08T09:30:26;101297.69;;;8.76;75.56
31483;BME280;18103;52.246;8.052;2023-04-08T09:32:55;101288.22;;;8.73;75.56
31483;BME280;18103;52.246;8.052;2023-04-08T09:35:24;101296.34;;;8.68;75.38
31483;BME280;18103;52.246;8.052;2023-04-08T09:37:50;101307.28;;;8.77;75.04
31483;BME280;18103;52.246;8.052;2023-04-08T09:40:16;101303.16;;;8.88;74.92
31483;BME280;18103;52.246;8.052;2023-04-08T09:42:46;101300.22;;;8.77;75.52
31483;BME280;18103;52.246;8.052;2023-04-08T09:45:18;101306.69;;;8.71;75.40
31483;BME280;18103;52.246;8.052;2023-04-08T09:47:54;101301.94;;;8.94;75.08
31483;BME280;18103;52.246;8.052;2023-04-08T09:50:26;101306.19;;;8.81;74.91
31483;BME280;18103;52.246;8.052;2023-04-08T09:52:59;101308.47;;;8.87;74.72
31483;BME280;18103;52.246;8.052;2023-04-08T09:55:29;101312.22;;;8.83;74.74
31483;BME280;18103;52.246;8.052;2023-04-08T09:58:07;101307.91;;;8.82;75.01
31483;BME280;18103;52.246;8.052;2023-04-08T10:00:41;101301.19;;;8.76;75.22
31483;BME280;18103;52.246;8.052;2023-04-08T10:03:26;101310.94;;;8.90;74.51
31483;BME280;18103;52.246;8.052;2023-04-08T10:05:57;101309.50;;;8.84;75.12
31483;BME280;18103;52.246;8.052;2023-04-08T10:08:30;101300.59;;;8.71;74.89
31483;BME280;18103;52.246;8.052;2023-04-08T10:10:57;101301.84;;;8.80;74.92
31483;BME280;18103;52.246;8.052;2023-04-08T10:13:23;101309.66;;;8.97;74.53
31483;BME280;18103;52.246;8.052;2023-04-08T10:15:49;101314.00;;;8.98;74.80
31483;BME280;18103;52.246;8.052;2023-04-08T10:20:46;101305.06;;;9.01;74.59
31483;BME280;18103;52.246;8.052;2023-04-08T10:23:17;101302.28;;;8.88;74.83
31483;BME280;18103;52.246;8.052;2023-04-08T10:25:46;101309.22;;;9.05;74.37
31483;BME280;18103;52.246;8.052;2023-04-08T10:30:46;101311.84;;;9.21;74.64
31483;BME280;18103;52.246;8.052;2023-04-08T10:35:52;101309.16;;;9.37;74.28
31483;BME280;18103;52.246;8.052;2023-04-08T10:38:21;101318.72;;;9.23;74.54
31483;BME280;18103;52.246;8.052;2023-04-08T10:40:49;101316.09;;;9.23;75.27
31483;BME280;18103;52.246;8.052;2023-04-08T10:43:18;101326.53;;;9.55;73.94
31483;BME280;18103;52.246;8.052;2023-04-08T10:45:44;101329.19;;;9.55;73.67
31483;BME280;18103;52.246;8.052;2023-04-08T10:48:21;101326.78;;;9.36;74.19
31483;BME280;18103;52.246;8.052;2023-04-08T10:53:31;101323.53;;;9.47;74.33
31483;BME280;18103;52.246;8.052;2023-04-08T10:56:11;101329.13;;;9.57;73.84
31483;BME280;18103;52.246;8.052;2023-04-08T10:58:51;101329.63;;;9.48;74.45
31483;BME280;18103;52.246;8.052;2023-04-08T11:01:18;101329.72;;;9.76;73.47
31483;BME280;18103;52.246;8.052;2023-04-08T11:03:44;101328.34;;;9.55;74.25
31483;BME280;18103;52.246;8.052;2023-04-08T11:06:13;101327.53;;;9.69;74.22
31483;BME280;18103;52.246;8.052;2023-04-08T11:08:41;101320.06;;;9.61;74.63
31483;BME280;18103;52.246;8.052;2023-04-08T11:11:09;101324.06;;;9.83;73.41
31483;BME280;18103;52.246;8.052;2023-04-08T11:13:44;101334.41;;;9.71;73.88
31483;BME280;18103;52.246;8.052;2023-04-08T11:16:13;101323.00;;;9.71;73.66
31483;BME280;18103;52.246;8.052;2023-04-08T11:18:41;101328.72;;;9.93;73.64
31483;BME280;18103;52.246;8.052;2023-04-08T11:21:10;101325.19;;;9.79;73.30
31483;BME280;18103;52.246;8.052;2023-04-08T11:23:37;101335.03;;;10.05;72.73
31483;BME280;18103;52.246;8.052;2023-04-08T11:26:03;101335.41;;;10.14;73.22
31483;BME280;18103;52.246;8.052;2023-04-08T11:28:29;101334.78;;;10.24;72.92
31483;BME280;18103;52.246;8.052;2023-04-08T11:30:58;101327.31;;;10.17;72.56
31483;BME280;18103;52.246;8.052;2023-04-08T11:33:30;101332.03;;;10.12;73.01
31483;BME280;18103;52.246;8.052;2023-04-08T11:35:59;101324.56;;;10.18;73.13
31483;BME280;18103;52.246;8.052;2023-04-08T11:38:28;101328.19;;;10.46;72.27
31483;BME280;18103;52.246;8.052;2023-04-08T11:40:57;101324.13;;;10.40;73.52
31483;BME280;18103;52.246;8.052;2023-04-08T11:43:23;101331.97;;;10.56;72.90
31483;BME280;18103;52.246;8.052;2023-04-08T11:45:49;101331.84;;;10.72;72.27
31483;BME280;18103;52.246;8.052;2023-04-08T11:48:15;101337.13;;;10.72;71.96
31483;BME280;18103;52.246;8.052;2023-04-08T11:50:42;101324.91;;;10.84;72.54
31483;BME280;18103;52.246;8.052;2023-04-08T11:53:23;101326.09;;;10.80;71.32
31483;BME280;18103;52.246;8.052;2023-04-08T11:55:51;101327.22;;;10.61;71.41
31483;BME280;18103;52.246;8.052;2023-04-08T11:58:17;101325.09;;;10.95;71.78
31483;BME280;18103;52.246;8.052;2023-04-08T12:00:45;101323.00;;;11.28;70.70
31483;BME280;18103;52.246;8.052;2023-04-08T12:03:10;101320.03;;;11.33;71.24
31483;BME280;18103;52.246;8.052;2023-04-08T12:05:41;101317.06;;;11.24;70.21
31483;BME280;18103;52.246;8.052;2023-04-08T12:08:06;101322.50;;;11.08;70.21
31483;BME280;18103;52.246;8.052;2023-04-08T12:10:34;101317.34;;;10.92;71.23
31483;BME280;18103;52.246;8.052;2023-04-08T12:13:00;101329.94;;;10.74;71.30
31483;BME280;18103;52.246;8.052;2023-04-08T12:15:25;101323.13;;;10.85;70.97
31483;BME280;18103;52.246;8.052;2023-04-08T12:17:53;101330.50;;;10.79;71.49
31483;BME280;18103;52.246;8.052;2023-04-08T12:20:21;101326.16;;;10.78;71.32
31483;BME280;18103;52.246;8.052;2023-04-08T12:22:47;101327.91;;;10.65;71.26
31483;BME280;18103;52.246;8.052;2023-04-08T12:25:14;101325.25;;;10.65;70.91
31483;BME280;18103;52.246;8.052;2023-04-08T12:27:40;101331.75;;;10.74;71.78
31483;BME280;18103;52.246;8.052;2023-04-08T12:30:08;101323.13;;;10.85;71.15
31483;BME280;18103;52.246;8.052;2023-04-08T12:32:36;101321.41;;;10.56;71.56
31483;BME280;18103;52.246;8.052;2023-04-08T12:35:01;101335.47;;;10.84;70.98
31483;BME280;18103;52.246;8.052;2023-04-08T12:37:26;101324.84;;;10.86;71.07
31483;BME280;18103;52.246;8.052;2023-04-08T12:39:54;101323.56;;;10.64;71.62
31483;BME280;18103;52.246;8.052;2023-04-08T12:42:20;101327.91;;;10.65;71.71
31483;BME280;18103;52.246;8.052;2023-04-08T12:44:45;101332.31;;;10.65;72.33
31483;BME280;18103;52.246;8.052;2023-04-08T12:47:16;101338.81;;;10.59;71.93
31483;BME280;18103;52.246;8.052;2023-04-08T12:49:41;101326.84;;;10.68;71.82
31483;BME280;18103;52.246;8.052;2023-04-08T12:52:09;101328.88;;;10.91;71.58
31483;BME280;18103;52.246;8.052;2023-04-08T12:54:37;101329.31;;;10.98;71.70
31483;BME280;18103;52.246;8.052;2023-04-08T12:57:05;101326.19;;;11.06;71.66
31483;BME280;18103;52.246;8.052;2023-04-08T12:59:31;101331.69;;;10.88;71.62
31483;BME280;18103;52.246;8.052;2023-04-08T13:01:57;101332.50;;;11.03;72.43
31483;BME280;18103;52.246;8.052;2023-04-08T13:04:23;101342.03;;;11.06;71.94
31483;BME280;18103;52.246;8.052;2023-04-08T13:06:48;101337.59;;;10.79;72.21
31483;BME280;18103;52.246;8.052;2023-04-08T13:09:14;101340.53;;;11.02;71.73
31483;BME280;18103;52.246;8.052;2023-04-08T13:11:39;101336.91;;;10.90;71.74
31483;BME280;18103;52.246;8.052;2023-04-08T13:14:05;101326.66;;;10.98;71.78
31483;BME280;18103;52.246;8.052;2023-04-08T13:16:30;101338.75;;;11.02;72.00
31483;BME280;18103;52.246;8.052;2023-04-08T13:18:56;101332.06;;;10.96;71.15